Aviation Digital Data Service (ADDS)

Output produced by TAFs form (1540 UTC 27 March 2015)
found at http://www.aviationweather.gov/adds/tafs/
 
KMRB 271136Z 2712/2812 35008KT P6SM -RA OVC040 
     FM271300 35008KT P6SM OVC040